CDG weather

Charles de Gaulle International Airport
Paris, Île-de-France, France

Public forecast

Using degrees Celsius for public forecast. Weather courtesy of forecast.io.

Current aviation weather report (METAR) for Charles de Gaulle International Airport

Retrieved 2020/01/26 20:30 UTC (0 seconds ago):

LFPG 262030Z 19012KT CAVOK 08/06 Q1015 NOSIG

Aviation forecast (TAF) for Charles de Gaulle International Airport

Retrieved 2020/01/26 18:59 UTC (1 hour ago):

TAF LFPG 261700Z 2618/2724 20010KT 8000 BKN045 TX09/2703Z TN07/2618Z BECMG 2618/2620 BKN018 BECMG 2620/2623 20015G25KT TEMPO 2620/2718 4500 -RA BKN012 TEMPO 2704/2707 BKN006 BECMG 2718/2720 BKN020 TEMPO 2719/2724 21015G30KT 4000 SHRA BKN016 SCT020TCU